Time;durP1;ratioP1;P1;durP2;ratioP2;P2;SDS_P1;SDS_P2;PMS_P1;PMS_P2;Temp;Humidity;BMP_temperature;BMP_pressure;BME280_temperature;BME280_humidity;BME280_pressure;Samples;Min_cycle;Max_cycle;Signal;HPM_P1;HPM_P2
2021/05/29 00:01:38;;;;;;;9.32;7.07;;;13.70;99.90;;;;;;5014254;28;20041;-74
2021/05/29 00:04:04;;;;;;;9.55;7.63;;;13.70;99.90;;;;;;5015245;28;20407;-75
2021/05/29 00:06:30;;;;;;;9.10;6.47;;;13.70;99.90;;;;;;5016109;28;20049;-75
2021/05/29 00:08:55;;;;;;;10.05;7.90;;;13.70;99.90;;;;;;5012830;28;20386;-74
2021/05/29 00:11:21;;;;;;;7.68;6.88;;;13.60;99.90;;;;;;5013560;28;20029;-74
2021/05/29 00:13:47;;;;;;;9.90;6.82;;;13.50;99.90;;;;;;5016266;28;20050;-73
2021/05/29 00:16:13;;;;;;;11.88;6.95;;;13.40;99.90;;;;;;5023468;28;20018;-75
2021/05/29 00:18:39;;;;;;;8.77;7.18;;;13.30;99.90;;;;;;5017555;28;20032;-75
2021/05/29 00:21:05;;;;;;;9.05;7.50;;;13.30;99.90;;;;;;5014387;28;20702;-75
2021/05/29 00:23:31;;;;;;;10.23;8.32;;;13.30;99.90;;;;;;5017572;28;20030;-74
2021/05/29 00:25:56;;;;;;;9.32;7.38;;;13.30;99.90;;;;;;5025599;28;20071;-75
2021/05/29 00:28:22;;;;;;;9.93;7.43;;;13.30;99.90;;;;;;5018603;28;20018;-74
2021/05/29 00:30:48;;;;;;;9.15;7.50;;;13.30;99.90;;;;;;5016208;28;20770;-75
2021/05/29 00:33:13;;;;;;;10.18;7.20;;;13.30;99.90;;;;;;5018359;28;20096;-74
2021/05/29 00:35:40;;;;;;;9.18;7.32;;;13.30;99.90;;;;;;5017526;28;20105;-76
2021/05/29 00:38:06;;;;;;;9.88;7.55;;;13.30;99.90;;;;;;5017070;28;20466;-76
2021/05/29 00:40:33;;;;;;;9.30;6.80;;;13.20;99.90;;;;;;5014231;28;20390;-76
2021/05/29 00:42:59;;;;;;;9.05;7.53;;;13.20;99.90;;;;;;5017334;28;20432;-75
2021/05/29 00:45:24;;;;;;;11.05;8.52;;;13.20;99.90;;;;;;5013418;28;20026;-75
2021/05/29 00:47:50;;;;;;;9.70;8.70;;;13.10;99.90;;;;;;5017715;28;20029;-75
2021/05/29 00:50:17;;;;;;;11.73;9.52;;;13.10;99.90;;;;;;5016808;28;20025;-75
2021/05/29 00:52:43;;;;;;;9.15;8.15;;;13.10;99.90;;;;;;5019516;28;20025;-75
2021/05/29 00:55:14;;;;;;;11.73;8.13;;;13.00;99.90;;;;;;5025316;28;20459;-76
2021/05/29 00:57:46;;;;;;;14.00;9.32;;;13.00;99.90;;;;;;5016788;28;20076;-75
2021/05/29 01:00:13;;;;;;;8.97;8.07;;;12.90;99.90;;;;;;5017699;28;20032;-76
2021/05/29 01:02:39;;;;;;;13.65;8.57;;;13.00;99.90;;;;;;5016646;28;20280;-74
2021/05/29 01:05:08;;;;;;;10.52;8.82;;;12.90;99.90;;;;;;5017329;28;20391;-75
2021/05/29 01:07:34;;;;;;;10.60;8.93;;;12.90;99.90;;;;;;5017988;28;20120;-75
2021/05/29 01:10:01;;;;;;;10.13;7.45;;;12.90;99.90;;;;;;5016992;28;20083;-74
2021/05/29 01:12:27;;;;;;;8.93;8.02;;;12.90;99.90;;;;;;5012816;28;20800;-76
2021/05/29 01:14:57;;;;;;;10.90;8.40;;;12.80;99.90;;;;;;5018316;28;20034;-76
2021/05/29 01:17:25;;;;;;;11.13;8.18;;;12.80;99.90;;;;;;5014407;28;20056;-76
2021/05/29 01:19:51;;;;;;;9.00;7.57;;;12.80;99.90;;;;;;5017664;28;20058;-76
2021/05/29 01:22:39;;;;;;;11.32;8.77;;;12.80;99.90;;;;;;5015646;28;20474;-76
2021/05/29 01:25:12;;;;;;;10.20;9.15;;;12.80;99.90;;;;;;5013345;28;20033;-76
2021/05/29 01:27:38;;;;;;;11.75;8.98;;;12.70;99.90;;;;;;5017586;28;20029;-76
2021/05/29 01:30:06;;;;;;;13.18;9.35;;;12.70;99.90;;;;;;5019122;28;20496;-76
2021/05/29 01:32:35;;;;;;;10.20;9.18;;;12.70;99.90;;;;;;5017204;28;20076;-76
2021/05/29 01:35:04;;;;;;;10.82;9.23;;;12.70;99.90;;;;;;5017764;28;20026;-75
2021/05/29 01:37:30;;;;;;;10.77;9.00;;;12.70;99.90;;;;;;5019735;28;20026;-76
2021/05/29 01:39:57;;;;;;;11.55;8.20;;;12.70;99.90;;;;;;5017343;28;20045;-76
2021/05/29 01:42:24;;;;;;;10.23;8.73;;;12.60;99.90;;;;;;5015547;28;20025;-75
2021/05/29 01:44:50;;;;;;;10.60;9.50;;;12.60;99.90;;;;;;5018342;28;20036;-76
2021/05/29 01:47:16;;;;;;;12.40;9.88;;;12.60;99.90;;;;;;5019327;28;20068;-75
2021/05/29 01:49:42;;;;;;;11.50;9.73;;;12.60;99.90;;;;;;5017236;28;20049;-75
2021/05/29 01:52:08;;;;;;;12.52;10.10;;;12.60;99.90;;;;;;5016307;28;20069;-75
2021/05/29 01:54:33;;;;;;;13.20;10.40;;;12.50;99.90;;;;;;5016622;28;20033;-76
2021/05/29 01:56:59;;;;;;;11.05;8.93;;;12.50;99.90;;;;;;5014661;28;20026;-74
2021/05/29 01:59:25;;;;;;;11.48;10.27;;;12.50;99.90;;;;;;5019790;28;20018;-75
2021/05/29 02:01:51;;;;;;;10.77;9.15;;;12.50;99.90;;;;;;5016859;28;20394;-75
2021/05/29 02:04:16;;;;;;;10.38;9.27;;;12.50;99.90;;;;;;5017285;28;20080;-75
2021/05/29 02:06:42;;;;;;;13.25;10.65;;;12.50;99.90;;;;;;5017939;28;20571;-75
2021/05/29 02:09:07;;;;;;;12.93;10.15;;;12.40;99.90;;;;;;5018708;28;20037;-75
2021/05/29 02:11:33;;;;;;;15.18;10.45;;;12.40;99.90;;;;;;5018109;28;20030;-75
2021/05/29 02:13:59;;;;;;;11.05;9.35;;;12.40;99.90;;;;;;5016258;28;22048;-73
2021/05/29 02:16:25;;;;;;;11.52;10.27;;;12.30;99.90;;;;;;5020814;28;20018;-75
2021/05/29 02:18:50;;;;;;;11.50;9.88;;;12.30;99.90;;;;;;5017403;28;20124;-74
2021/05/29 02:21:18;;;;;;;12.70;9.60;;;12.30;99.90;;;;;;5020844;28;20482;-75
2021/05/29 02:23:49;;;;;;;11.90;10.23;;;12.30;99.90;;;;;;5015033;28;20033;-75
2021/05/29 02:26:21;;;;;;;10.68;9.25;;;12.30;99.90;;;;;;5018691;28;20496;-75
2021/05/29 02:28:50;;;;;;;12.13;10.15;;;12.20;99.90;;;;;;5016688;28;20032;-75
2021/05/29 02:31:17;;;;;;;11.57;10.30;;;12.30;99.90;;;;;;5018685;28;20045;-75
2021/05/29 02:33:43;;;;;;;10.50;9.13;;;12.20;99.90;;;;;;5016813;28;20478;-75
2021/05/29 02:36:09;;;;;;;11.85;9.52;;;12.20;99.90;;;;;;5017809;28;20032;-75
2021/05/29 02:38:35;;;;;;;15.25;9.38;;;12.10;99.90;;;;;;5019512;28;20029;-74
2021/05/29 02:41:06;;;;;;;12.90;10.55;;;12.10;99.90;;;;;;5019242;28;20022;-74
2021/05/29 02:43:32;;;;;;;10.70;9.52;;;12.20;99.90;;;;;;5016138;28;20026;-75
2021/05/29 02:45:58;;;;;;;14.65;9.73;;;12.10;99.90;;;;;;5016444;28;20445;-75
2021/05/29 02:48:23;;;;;;;13.55;10.55;;;12.10;99.90;;;;;;5015473;28;20029;-75
2021/05/29 02:50:49;;;;;;;10.55;9.05;;;12.10;99.90;;;;;;5016632;28;20483;-74
2021/05/29 02:53:16;;;;;;;11.45;9.45;;;12.10;99.90;;;;;;5020068;28;20029;-74
2021/05/29 02:55:42;;;;;;;11.82;9.45;;;12.10;99.90;;;;;;5025644;28;20501;-74
2021/05/29 02:58:08;;;;;;;12.65;10.68;;;12.00;99.90;;;;;;5013946;28;20045;-74
2021/05/29 03:00:45;;;;;;;13.25;10.43;;;12.00;99.90;;;;;;5017732;28;20029;-74
2021/05/29 03:03:12;;;;;;;10.38;9.30;;;12.00;99.90;;;;;;5016635;28;20057;-75
2021/05/29 03:05:39;;;;;;;10.73;8.80;;;12.00;99.90;;;;;;5018358;28;20025;-74
2021/05/29 03:08:06;;;;;;;15.15;10.68;;;11.90;99.90;;;;;;5016528;28;20378;-74
2021/05/29 03:10:32;;;;;;;11.60;8.65;;;11.90;99.90;;;;;;5017805;28;20021;-74
2021/05/29 03:12:58;;;;;;;11.80;10.02;;;11.90;99.90;;;;;;5018988;28;20041;-73
2021/05/29 03:15:25;;;;;;;12.05;9.30;;;11.90;99.90;;;;;;5014192;28;20030;-74
2021/05/29 03:17:52;;;;;;;10.30;9.20;;;11.90;99.90;;;;;;5014295;28;20028;-75
2021/05/29 03:20:20;;;;;;;11.85;8.45;;;11.80;99.90;;;;;;5015580;28;20026;-75
2021/05/29 03:22:46;;;;;;;12.38;9.88;;;11.90;99.90;;;;;;5015482;28;20088;-74
2021/05/29 03:25:14;;;;;;;10.80;9.00;;;11.70;99.90;;;;;;5014641;28;20029;-75
2021/05/29 03:27:40;;;;;;;11.35;9.80;;;11.80;99.90;;;;;;5013080;28;20026;-74
2021/05/29 03:30:12;;;;;;;11.95;9.88;;;11.80;99.90;;;;;;5017172;28;20072;-74
2021/05/29 03:32:38;;;;;;;12.90;9.20;;;11.80;99.90;;;;;;5016089;28;20026;-74
2021/05/29 03:35:06;;;;;;;9.88;8.27;;;11.60;99.90;;;;;;5019291;28;20097;-74
2021/05/29 03:37:31;;;;;;;9.02;8.05;;;11.60;99.90;;;;;;5016180;28;20540;-75
2021/05/29 03:39:57;;;;;;;8.95;7.38;;;11.60;99.90;;;;;;5018235;28;20089;-74
2021/05/29 03:42:23;;;;;;;11.45;8.35;;;11.50;99.90;;;;;;5012949;28;20113;-75
2021/05/29 03:44:48;;;;;;;12.10;8.20;;;11.60;99.90;;;;;;5018407;28;20493;-74
2021/05/29 03:47:14;;;;;;;12.65;9.88;;;11.60;99.90;;;;;;5014993;28;20382;-74
2021/05/29 03:49:39;;;;;;;10.77;8.52;;;11.60;99.90;;;;;;5014832;28;20117;-74
2021/05/29 03:52:07;;;;;;;12.65;9.50;;;11.50;99.90;;;;;;5019670;28;20034;-74
2021/05/29 03:54:33;;;;;;;10.07;8.50;;;11.50;99.90;;;;;;5017395;28;20113;-74
2021/05/29 03:56:59;;;;;;;11.45;8.38;;;11.50;99.90;;;;;;5016256;28;20394;-74
2021/05/29 03:59:24;;;;;;;12.23;8.40;;;11.50;99.90;;;;;;5015800;28;20018;-74
2021/05/29 04:01:50;;;;;;;9.77;8.23;;;11.50;99.90;;;;;;5018300;28;20033;-74
2021/05/29 04:04:15;;;;;;;9.32;8.32;;;11.40;99.90;;;;;;5022882;28;20022;-74
2021/05/29 04:06:41;;;;;;;10.95;8.27;;;11.40;99.90;;;;;;5016420;28;20033;-74
2021/05/29 04:09:08;;;;;;;10.98;9.40;;;11.40;99.90;;;;;;5015400;28;20041;-74
2021/05/29 04:11:35;;;;;;;10.35;9.13;;;11.50;99.90;;;;;;5017677;28;20502;-73
2021/05/29 04:14:01;;;;;;;11.63;9.00;;;11.40;99.90;;;;;;5019974;28;20041;-74
2021/05/29 04:16:26;;;;;;;11.32;9.45;;;11.50;99.90;;;;;;5014099;28;20028;-74
2021/05/29 04:18:52;;;;;;;11.07;9.75;;;11.50;99.90;;;;;;5018429;28;20538;-73
2021/05/29 04:21:19;;;;;;;12.95;10.32;;;11.50;99.90;;;;;;5017882;28;20025;-74
2021/05/29 04:23:44;;;;;;;12.63;9.98;;;11.50;99.90;;;;;;5014548;28;20052;-73
2021/05/29 04:26:10;;;;;;;12.57;9.95;;;11.50;99.90;;;;;;5019902;28;20100;-74
2021/05/29 04:28:37;;;;;;;12.60;9.88;;;11.50;99.90;;;;;;5017330;28;20034;-74
2021/05/29 04:31:03;;;;;;;12.68;9.85;;;11.50;99.90;;;;;;5019148;28;20018;-74
2021/05/29 04:33:29;;;;;;;13.93;11.00;;;11.50;99.90;;;;;;5019286;28;20029;-74
2021/05/29 04:35:55;;;;;;;14.05;10.98;;;11.50;99.90;;;;;;5017412;28;20026;-74
2021/05/29 04:38:21;;;;;;;14.95;12.18;;;11.50;99.90;;;;;;5015938;28;20057;-74
2021/05/29 04:40:48;;;;;;;16.40;13.25;;;11.60;99.90;;;;;;5016411;28;20544;-74
2021/05/29 04:43:14;;;;;;;17.35;11.55;;;11.60;99.90;;;;;;5017093;28;20084;-74
2021/05/29 04:45:41;;;;;;;15.63;11.93;;;11.60;99.90;;;;;;5016170;28;20038;-74
2021/05/29 04:48:08;;;;;;;17.75;12.68;;;11.70;99.90;;;;;;5014330;28;20052;-74
2021/05/29 04:51:11;;;;;;;15.30;12.15;;;11.70;99.90;;;;;;5022518;28;20088;-74
2021/05/29 04:53:19;;;;;;;16.95;11.82;;;11.80;99.90;;;;;;5014816;28;20045;-74
2021/05/29 04:55:45;;;;;;;15.45;12.10;;;11.80;99.90;;;;;;5022387;28;20048;-74
2021/05/29 04:58:10;;;;;;;14.55;10.60;;;11.90;99.90;;;;;;5022066;28;20041;-74
2021/05/29 05:00:36;;;;;;;18.30;13.00;;;11.90;99.90;;;;;;5014326;28;20028;-74
2021/05/29 05:03:01;;;;;;;17.58;12.25;;;11.90;99.90;;;;;;5019487;28;20441;-74
2021/05/29 05:05:27;;;;;;;17.17;11.65;;;11.90;99.90;;;;;;5014216;28;20104;-74
2021/05/29 05:07:53;;;;;;;17.55;13.02;;;12.00;99.90;;;;;;5015914;28;20026;-74
2021/05/29 05:10:18;;;;;;;16.52;11.80;;;11.90;99.90;;;;;;5014054;28;20080;-74
2021/05/29 05:12:44;;;;;;;18.90;13.30;;;12.00;99.90;;;;;;5026445;28;20041;-74
2021/05/29 05:15:10;;;;;;;17.00;11.63;;;12.00;99.90;;;;;;5024207;28;20470;-74
2021/05/29 05:17:36;;;;;;;16.80;12.93;;;12.00;99.90;;;;;;5019309;28;20022;-74
2021/05/29 05:20:03;;;;;;;16.88;14.05;;;12.10;99.90;;;;;;5020735;28;20025;-74
2021/05/29 05:22:29;;;;;;;17.35;13.10;;;12.10;99.90;;;;;;5021149;28;20037;-74
2021/05/29 05:24:54;;;;;;;19.70;13.57;;;12.10;99.90;;;;;;5024834;28;20022;-74
2021/05/29 05:27:20;;;;;;;19.02;13.35;;;12.00;99.90;;;;;;5018339;28;20030;-74
2021/05/29 05:29:46;;;;;;;16.73;12.88;;;12.10;99.90;;;;;;5020207;28;20032;-74
2021/05/29 05:32:11;;;;;;;20.75;12.88;;;12.10;99.90;;;;;;5017186;28;20026;-74
2021/05/29 05:34:37;;;;;;;16.00;12.40;;;12.10;99.90;;;;;;5023145;28;20616;-74
2021/05/29 05:37:03;;;;;;;17.67;14.77;;;12.20;99.90;;;;;;5016492;28;20025;-74
2021/05/29 05:39:28;;;;;;;19.80;13.80;;;12.10;99.90;;;;;;5018201;28;20581;-74
2021/05/29 05:41:54;;;;;;;19.30;14.80;;;12.10;99.90;;;;;;5016886;28;20504;-74
2021/05/29 05:44:20;;;;;;;21.63;15.85;;;12.20;99.90;;;;;;5021453;28;20080;-74
2021/05/29 05:46:45;;;;;;;19.65;16.10;;;12.30;99.90;;;;;;5016844;28;20478;-74
2021/05/29 05:49:11;;;;;;;22.25;16.25;;;12.30;99.90;;;;;;5023676;28;20057;-74
2021/05/29 05:51:37;;;;;;;18.73;16.13;;;12.40;99.90;;;;;;5019739;28;20021;-74
2021/05/29 05:54:03;;;;;;;22.45;15.70;;;12.50;99.90;;;;;;5017983;28;20095;-73
2021/05/29 05:56:31;;;;;;;19.05;15.52;;;12.50;99.90;;;;;;5022932;28;20490;-74
2021/05/29 05:58:58;;;;;;;24.13;16.77;;;12.50;99.90;;;;;;5016829;28;20478;-74
2021/05/29 06:01:25;;;;;;;21.20;16.05;;;12.40;99.90;;;;;;5020339;28;20061;-73
2021/05/29 06:03:51;;;;;;;20.17;16.17;;;12.50;99.90;;;;;;5016373;28;20037;-74
2021/05/29 06:06:16;;;;;;;23.85;16.05;;;12.60;99.90;;;;;;5017140;28;20018;-74
2021/05/29 06:08:42;;;;;;;18.17;16.00;;;12.60;99.90;;;;;;5014310;28;20061;-74
2021/05/29 06:11:08;;;;;;;26.77;16.85;;;12.70;99.90;;;;;;5015035;28;20040;-74
2021/05/29 06:19:10;;;;;;;22.70;17.10;;;12.80;99.90;;;;;;5016437;28;20029;-74
2021/05/29 06:21:36;;;;;;;24.27;17.35;;;12.90;99.90;;;;;;5019079;28;20076;-73
2021/05/29 06:24:03;;;;;;;20.20;15.30;;;13.00;99.90;;;;;;5011787;28;20037;-74
2021/05/29 06:26:29;;;;;;;24.75;17.08;;;13.00;99.90;;;;;;5018323;28;20511;-74
2021/05/29 06:28:54;;;;;;;21.00;17.13;;;13.00;99.90;;;;;;5023875;28;20743;-74
2021/05/29 06:31:20;;;;;;;24.00;17.13;;;13.00;99.90;;;;;;5016810;28;20053;-74
2021/05/29 06:33:46;;;;;;;22.08;15.02;;;13.10;99.90;;;;;;5023129;28;20038;-74
2021/05/29 06:36:12;;;;;;;19.88;14.43;;;13.20;99.90;;;;;;5015703;28;20022;-74
2021/05/29 06:38:37;;;;;;;21.00;16.88;;;13.30;99.90;;;;;;5017869;28;20041;-74
2021/05/29 06:41:03;;;;;;;21.75;16.05;;;13.40;99.90;;;;;;5014783;28;20030;-74
2021/05/29 06:43:29;;;;;;;19.90;16.77;;;13.50;99.90;;;;;;5016559;28;20030;-74
2021/05/29 06:45:55;;;;;;;18.88;14.75;;;13.60;99.90;;;;;;5016363;28;20048;-74
2021/05/29 06:48:21;;;;;;;16.52;12.70;;;13.80;99.90;;;;;;5013155;28;20084;-74
2021/05/29 06:50:53;;;;;;;21.27;14.25;;;14.00;99.90;;;;;;5016681;28;20096;-74
2021/05/29 06:53:34;;;;;;;19.13;13.15;;;14.10;99.90;;;;;;5019402;28;20052;-75
2021/05/29 06:58:49;;;;;;;19.63;13.68;;;14.50;99.90;;;;;;5020965;28;20036;-74
2021/05/29 07:01:21;;;;;;;19.35;13.82;;;14.70;99.90;;;;;;5016590;28;20026;-74
2021/05/29 07:03:48;;;;;;;17.15;14.07;;;14.90;99.90;;;;;;5018212;28;20017;-74
2021/05/29 07:06:15;;;;;;;20.80;14.80;;;15.00;99.90;;;;;;5016104;28;20026;-74
2021/05/29 07:08:40;;;;;;;15.35;12.10;;;15.00;99.90;;;;;;5014190;28;20080;-74
2021/05/29 07:11:06;;;;;;;19.55;13.52;;;15.10;99.90;;;;;;5013479;28;20029;-75
2021/05/29 07:13:32;;;;;;;15.25;11.90;;;15.30;99.90;;;;;;5015088;28;20026;-74
2021/05/29 07:15:59;;;;;;;16.80;11.52;;;15.40;99.90;;;;;;5016546;28;20061;-74
2021/05/29 07:18:29;;;;;;;12.70;11.32;;;15.40;99.90;;;;;;5014680;28;20435;-74
2021/05/29 07:20:55;;;;;;;14.13;11.30;;;15.60;99.90;;;;;;5015680;28;20378;-74
2021/05/29 07:23:22;;;;;;;14.35;11.73;;;15.80;99.90;;;;;;5014854;28;20018;-74
2021/05/29 07:25:47;;;;;;;14.48;10.82;;;16.00;99.90;;;;;;5013410;28;20041;-74
2021/05/29 07:28:15;;;;;;;13.73;10.88;;;16.10;99.90;;;;;;5014378;28;20013;-75
2021/05/29 07:30:41;;;;;;;12.18;9.95;;;16.30;99.90;;;;;;5015451;28;20061;-75
2021/05/29 07:33:06;;;;;;;14.85;10.30;;;16.40;99.90;;;;;;5016777;28;20142;-75
2021/05/29 07:35:32;;;;;;;12.18;9.52;;;16.40;99.90;;;;;;5014959;28;20021;-75
2021/05/29 07:37:58;;;;;;;14.43;10.88;;;16.50;99.90;;;;;;5015508;28;20028;-75
2021/05/29 07:40:24;;;;;;;13.60;9.50;;;16.60;99.90;;;;;;5019801;28;20052;-75
2021/05/29 07:42:50;;;;;;;16.58;10.43;;;16.60;99.90;;;;;;5019312;28;20509;-75
2021/05/29 07:45:16;;;;;;;13.27;10.63;;;16.70;99.90;;;;;;5020623;28;20030;-75
2021/05/29 07:47:41;;;;;;;15.52;10.48;;;16.80;99.90;;;;;;5014778;28;20156;-75
2021/05/29 07:50:08;;;;;;;13.65;10.07;;;17.00;99.90;;;;;;5014155;28;20025;-75
2021/05/29 07:52:34;;;;;;;13.98;10.65;;;17.00;99.90;;;;;;5014432;28;20373;-74
2021/05/29 07:55:00;;;;;;;13.40;9.93;;;17.00;99.90;;;;;;5015100;28;20022;-74
2021/05/29 07:57:26;;;;;;;9.18;8.23;;;17.10;99.90;;;;;;5022131;28;20026;-75
2021/05/29 07:59:51;;;;;;;10.73;8.65;;;17.20;99.90;;;;;;5018218;28;20026;-75
2021/05/29 08:02:17;;;;;;;11.43;8.40;;;17.40;99.90;;;;;;5012836;28;20018;-75
2021/05/29 08:04:43;;;;;;;10.55;8.93;;;17.40;99.90;;;;;;5016741;28;20040;-75
2021/05/29 08:07:08;;;;;;;11.48;9.23;;;17.40;99.90;;;;;;5016321;28;20030;-75
2021/05/29 08:09:34;;;;;;;12.55;8.63;;;17.50;99.90;;;;;;5013470;28;20037;-76
2021/05/29 08:12:00;;;;;;;10.48;8.52;;;17.60;99.90;;;;;;5012923;28;20080;-75
2021/05/29 08:14:26;;;;;;;9.30;8.27;;;17.70;99.90;;;;;;5017139;28;20488;-76
2021/05/29 08:16:51;;;;;;;9.90;8.27;;;17.60;99.90;;;;;;5018826;28;20064;-76
2021/05/29 08:19:17;;;;;;;11.82;8.50;;;17.80;99.90;;;;;;5015033;28;20087;-76
2021/05/29 08:21:45;;;;;;;8.60;7.68;;;17.90;99.90;;;;;;5014831;28;20029;-75
2021/05/29 08:24:11;;;;;;;10.95;9.70;;;18.00;99.90;;;;;;5015843;28;20037;-75
2021/05/29 08:26:37;;;;;;;14.48;8.15;;;18.00;99.90;;;;;;5013556;28;20025;-76
2021/05/29 08:29:05;;;;;;;11.02;8.25;;;18.00;99.90;;;;;;5017474;28;20080;-76
2021/05/29 08:31:31;;;;;;;12.82;8.38;;;18.10;99.90;;;;;;5016077;28;20462;-74
2021/05/29 08:33:57;;;;;;;12.15;8.02;;;18.20;99.90;;;;;;5010538;28;20041;-75
2021/05/29 08:36:22;;;;;;;9.60;7.70;;;18.30;99.90;;;;;;5018989;28;20022;-75
2021/05/29 08:38:48;;;;;;;10.65;7.70;;;18.30;99.90;;;;;;5023738;28;20402;-75
2021/05/29 08:41:15;;;;;;;7.45;6.47;;;18.50;99.90;;;;;;5021051;28;20493;-75
2021/05/29 08:43:41;;;;;;;8.52;6.07;;;18.50;99.90;;;;;;5014371;28;20068;-74
2021/05/29 08:46:07;;;;;;;8.95;6.32;;;18.50;99.90;;;;;;5017646;28;20707;-74
2021/05/29 08:48:33;;;;;;;6.88;5.63;;;18.60;99.90;;;;;;5021073;28;20470;-75
2021/05/29 08:51:14;;;;;;;6.80;5.57;;;18.70;99.90;;;;;;5018162;28;20498;-74
2021/05/29 08:53:45;;;;;;;51.95;7.30;;;18.80;99.90;;;;;;5019279;28;20034;-75
2021/05/29 08:56:12;;;;;;;169.10;13.48;;;19.00;99.90;;;;;;5017817;28;20057;-76
2021/05/29 08:58:39;;;;;;;11.52;4.78;;;19.10;99.90;;;;;;5018055;28;20426;-78
2021/05/29 09:01:07;;;;;;;4.47;3.15;;;19.20;99.90;;;;;;5019210;28;20026;-79
2021/05/29 09:03:42;;;;;;;3.03;2.83;;;19.30;99.90;;;;;;5020210;28;20038;-77
2021/05/29 09:06:08;;;;;;;5.82;4.90;;;19.40;99.90;;;;;;5023906;28;20049;-78
2021/05/29 09:08:34;;;;;;;12.25;4.45;;;19.50;99.90;;;;;;5020126;28;20442;-76
2021/05/29 09:11:00;;;;;;;7.40;2.28;;;19.60;99.90;;;;;;5019052;28;21058;-74
2021/05/29 09:13:28;;;;;;;10.00;2.08;;;19.70;99.90;;;;;;5017163;28;20445;-73
2021/05/29 09:16:02;;;;;;;4.95;2.80;;;19.90;99.90;;;;;;5016672;28;20022;-72
2021/05/29 09:18:36;;;;;;;13.38;4.05;;;20.00;99.90;;;;;;5019473;28;20075;-75
2021/05/29 09:21:23;;;;;;;17.75;4.88;;;20.10;99.90;;;;;;5025441;28;20025;-75
2021/05/29 09:23:52;;;;;;;3.72;2.10;;;20.30;99.90;;;;;;5021212;28;20124;-74
2021/05/29 09:26:23;;;;;;;102.80;9.73;;;20.20;99.90;;;;;;5022951;28;20119;-75
2021/05/29 09:28:50;;;;;;;38.00;5.32;;;20.30;99.90;;;;;;5017988;28;20521;-75
2021/05/29 09:31:17;;;;;;;7.78;3.70;;;20.50;99.90;;;;;;5023997;28;20171;-74
2021/05/29 09:33:46;;;;;;;5.15;4.60;;;20.70;99.90;;;;;;5018873;28;20049;-74
2021/05/29 09:36:15;;;;;;;5.45;3.70;;;21.00;99.90;;;;;;5021835;28;20022;-74
2021/05/29 09:38:46;;;;;;;6.15;3.97;;;21.10;99.90;;;;;;5017842;28;20033;-74
2021/05/29 09:41:27;;;;;;;6.43;3.78;;;21.20;99.90;;;;;;5022817;28;20024;-73
2021/05/29 09:43:58;;;;;;;7.47;3.92;;;21.40;99.90;;;;;;5027376;28;20034;-73
2021/05/29 09:46:24;;;;;;;4.28;3.88;;;21.50;99.90;;;;;;5019092;28;20024;-72
2021/05/29 09:48:55;;;;;;;5.72;4.50;;;21.70;99.90;;;;;;5018536;28;20508;-72
2021/05/29 09:51:21;;;;;;;6.28;4.63;;;21.70;99.90;;;;;;5018562;28;20040;-72
2021/05/29 09:53:50;;;;;;;6.75;3.85;;;21.90;99.90;;;;;;5016592;28;20470;-72
2021/05/29 09:56:27;;;;;;;4.78;3.75;;;21.90;99.90;;;;;;5018723;28;20024;-72
2021/05/29 09:59:17;;;;;;;31.17;5.53;;;21.70;99.90;;;;;;5017109;28;20032;-72
2021/05/29 10:01:53;;;;;;;18.20;4.25;;;21.50;99.70;;;;;;5019944;28;20028;-72
2021/05/29 10:04:52;;;;;;;3.40;2.30;;;21.60;99.90;;;;;;5015673;28;20018;-73
2021/05/29 10:07:17;;;;;;;4.82;2.70;;;21.70;99.90;;;;;;5015097;28;20033;-72
2021/05/29 10:09:43;;;;;;;18.15;3.55;;;21.70;99.50;;;;;;5014067;28;20030;-72
2021/05/29 10:12:10;;;;;;;11.40;3.17;;;21.90;99.90;;;;;;5018007;28;20120;-72
2021/05/29 10:14:36;;;;;;;5.15;3.55;;;22.10;99.60;;;;;;5013502;28;20034;-72
2021/05/29 10:17:07;;;;;;;5.80;4.10;;;22.10;99.20;;;;;;5020060;28;21295;-73
2021/05/29 10:19:36;;;;;;;5.85;4.00;;;22.20;99.10;;;;;;5012310;28;20022;-72
2021/05/29 10:22:08;;;;;;;7.25;3.50;;;22.20;99.90;;;;;;5017519;28;20022;-71
2021/05/29 10:24:35;;;;;;;2.23;1.90;;;22.40;99.90;;;;;;5012144;28;20032;-73
2021/05/29 10:27:06;;;;;;;3.47;2.85;;;22.50;97.80;;;;;;5014847;28;20288;-72
2021/05/29 10:29:32;;;;;;;5.60;3.40;;;22.40;98.00;;;;;;5012315;28;20110;-71
2021/05/29 10:32:13;;;;;;;4.47;3.55;;;22.40;98.60;;;;;;5016870;28;20029;-72
2021/05/29 10:35:05;;;;;;;6.20;3.75;;;22.60;99.90;;;;;;5020414;28;20045;-72
2021/05/29 10:37:36;;;;;;;4.90;3.45;;;22.80;98.00;;;;;;5024913;28;20048;-72
2021/05/29 10:40:14;;;;;;;4.03;3.10;;;22.90;98.10;;;;;;5015481;28;20022;-71
2021/05/29 10:42:40;;;;;;;4.32;2.63;;;22.90;98.00;;;;;;5021685;28;20029;-72
2021/05/29 10:45:32;;;;;;;4.18;2.80;;;22.70;97.80;;;;;;5017846;28;20089;-71
2021/05/29 10:48:14;;;;;;;3.97;3.03;;;22.80;98.20;;;;;;5021879;28;20102;-71
2021/05/29 10:50:53;;;;;;;4.45;3.42;;;23.00;96.60;;;;;;5014345;28;20294;-71
2021/05/29 10:53:33;;;;;;;4.95;2.80;;;22.90;97.40;;;;;;5021950;28;20649;-71
2021/05/29 10:56:24;;;;;;;4.25;2.83;;;23.10;97.50;;;;;;5014913;28;20057;-71
2021/05/29 10:59:08;;;;;;;4.05;2.90;;;23.00;96.50;;;;;;5015512;28;20120;-71
2021/05/29 11:01:41;;;;;;;3.53;2.35;;;22.80;96.40;;;;;;5015095;28;20029;-71
2021/05/29 11:04:19;;;;;;;4.85;3.60;;;22.70;97.90;;;;;;5011207;28;20028;-71
2021/05/29 11:06:54;;;;;;;4.25;3.33;;;22.70;96.80;;;;;;5019052;28;20417;-71
2021/05/29 11:09:32;;;;;;;6.60;2.83;;;22.90;96.00;;;;;;5016488;28;20030;-71
2021/05/29 11:12:02;;;;;;;4.50;3.25;;;23.30;96.00;;;;;;5012736;28;20584;-71
2021/05/29 11:14:47;;;;;;;4.00;3.50;;;23.40;95.40;;;;;;5016355;28;20546;-71
2021/05/29 11:17:14;;;;;;;2.90;2.70;;;23.30;95.80;;;;;;5013336;28;20026;-72
2021/05/29 11:19:41;;;;;;;4.90;2.88;;;23.30;95.90;;;;;;5017447;28;20026;-72
2021/05/29 11:22:12;;;;;;;3.25;2.95;;;22.90;94.40;;;;;;5017685;28;20128;-71
2021/05/29 11:24:39;;;;;;;3.17;2.85;;;22.70;95.80;;;;;;5013772;28;20453;-71
2021/05/29 11:27:07;;;;;;;3.42;3.13;;;22.50;96.70;;;;;;5014375;28;20109;-72
2021/05/29 11:29:50;;;;;;;3.78;2.95;;;22.70;95.10;;;;;;5016589;28;20044;-71
2021/05/29 11:32:52;;;;;;;4.88;3.22;;;22.50;95.20;;;;;;5017066;28;20105;-72
2021/05/29 11:35:41;;;;;;;5.78;2.75;;;22.40;95.60;;;;;;5012830;28;20061;-72
2021/05/29 11:38:29;;;;;;;2.67;2.35;;;22.60;96.90;;;;;;5021164;28;20027;-72
2021/05/29 11:41:08;;;;;;;4.88;2.42;;;22.30;97.00;;;;;;5016728;28;20049;-71
2021/05/29 11:43:35;;;;;;;4.72;2.70;;;22.10;96.10;;;;;;5017006;28;20034;-71
2021/05/29 11:46:07;;;;;;;2.60;2.40;;;22.60;95.20;;;;;;5019059;28;20021;-72
2021/05/29 11:48:33;;;;;;;2.78;2.45;;;22.90;95.80;;;;;;5019190;28;20111;-71
2021/05/29 11:51:12;;;;;;;4.60;2.50;;;23.00;96.20;;;;;;5016596;28;20073;-72
2021/05/29 11:53:42;;;;;;;2.90;2.70;;;22.90;95.90;;;;;;5018769;28;20044;-71
2021/05/29 11:56:08;;;;;;;3.85;2.10;;;22.80;96.40;;;;;;5012946;28;20057;-72
2021/05/29 11:58:41;;;;;;;4.78;2.35;;;23.00;95.40;;;;;;5018226;28;20490;-72
2021/05/29 12:01:07;;;;;;;4.05;2.40;;;23.20;92.50;;;;;;5015996;28;20057;-73
2021/05/29 12:03:44;;;;;;;2.75;2.45;;;23.40;93.50;;;;;;5018509;28;20424;-72
2021/05/29 12:06:11;;;;;;;2.88;2.53;;;23.20;93.40;;;;;;5016987;28;20101;-72
2021/05/29 12:08:54;;;;;;;4.47;2.38;;;22.90;96.00;;;;;;5014541;28;20025;-73
2021/05/29 12:11:21;;;;;;;;;;;22.80;96.60;;;;;;5018394;28;20119;-72
2021/05/29 12:13:59;;;;;;;3.17;2.90;;;23.00;97.00;;;;;;5012478;28;20277;-72
2021/05/29 12:16:30;;;;;;;4.35;3.30;;;23.30;95.90;;;;;;5016600;28;20497;-73
2021/05/29 12:18:56;;;;;;;2.92;2.72;;;23.40;94.70;;;;;;5016198;28;20030;-72
2021/05/29 12:21:21;;;;;;;3.65;3.35;;;23.10;93.30;;;;;;5020497;28;20147;-72
2021/05/29 12:23:57;;;;;;;4.47;3.08;;;22.90;93.50;;;;;;5019858;28;20052;-72
2021/05/29 12:26:24;;;;;;;3.30;2.67;;;23.10;94.20;;;;;;5018514;28;20470;-73
2021/05/29 12:28:51;;;;;;;3.83;2.75;;;22.70;95.10;;;;;;5016929;28;20084;-72
2021/05/29 12:31:18;;;;;;;3.00;2.20;;;22.70;95.10;;;;;;5019649;28;20022;-72
2021/05/29 12:33:44;;;;;;;4.25;2.42;;;22.50;94.90;;;;;;5017447;28;20088;-72
2021/05/29 12:36:12;;;;;;;3.30;2.88;;;22.40;94.50;;;;;;5016620;28;20065;-72
2021/05/29 12:38:54;;;;;;;3.72;3.08;;;22.20;95.70;;;;;;5017534;28;20035;-72
2021/05/29 12:41:24;;;;;;;4.80;3.33;;;22.10;96.10;;;;;;5017980;28;20060;-72
2021/05/29 12:44:07;;;;;;;3.65;3.10;;;22.20;96.70;;;;;;5023054;28;20033;-73
2021/05/29 12:46:33;;;;;;;4.45;3.10;;;22.60;96.10;;;;;;5018827;28;20032;-72
2021/05/29 12:49:08;;;;;;;5.88;2.97;;;22.70;95.70;;;;;;5019938;28;20029;-72
2021/05/29 12:51:49;;;;;;;3.53;3.20;;;23.00;96.40;;;;;;5017096;28;20030;-72
2021/05/29 12:54:15;;;;;;;6.85;3.60;;;23.20;94.00;;;;;;5019381;28;20029;-72